Terminal Aerodrome Forecast
Issued by NWS

Home | Current Version | Previous Version | Text Only | Print | Product List | Glossary On
Versions: 1 2 3 4 5 6 7 8 9 10 11 12 13 14 15
074
FTUS46 KLOX 261141
TAFVNY
TAF
KVNY 261141Z 2612/2712 12006KT 6SM -RA BR SCT025 OVC035
     FM261700 11007KT P6SM VCSH SCT025 OVC040
     FM262100 14007KT P6SM BKN040 BKN080
     FM270300 VRB03KT P6SM BKN050=

USA.gov is the U.S. government's official web portal to all federal, state and local government web resources and services.